createdAt,value
2022-12-03T00:00:00.169Z,-2.09
2022-12-03T00:02:27.335Z,-2.11
2022-12-03T00:07:22.019Z,-2.09
2022-12-03T00:09:49.000Z,-2.07
2022-12-03T00:12:16.026Z,-2.04
2022-12-03T00:14:44.879Z,-2.05
2022-12-03T00:17:12.169Z,-2.04
2022-12-03T00:19:39.183Z,-2.12
2022-12-03T00:22:06.106Z,-2.21
2022-12-03T00:24:33.158Z,-2.21
2022-12-03T00:27:00.119Z,-2.18
2022-12-03T00:29:27.260Z,-2.18
2022-12-03T00:31:54.178Z,-2.22
2022-12-03T00:34:22.817Z,-2.21
2022-12-03T00:36:49.895Z,-2.21
2022-12-03T00:39:17.097Z,-2.49
2022-12-03T00:41:44.061Z,-2.81
2022-12-03T00:44:12.000Z,-2.81
2022-12-03T00:46:39.094Z,-2.92
2022-12-03T00:49:06.589Z,-2.94
2022-12-03T00:51:36.013Z,-3.23
2022-12-03T00:54:03.200Z,-3.02
2022-12-03T00:56:30.264Z,-2.98
2022-12-03T00:58:57.279Z,-2.96
2022-12-03T01:01:24.367Z,-2.88
2022-12-03T01:03:51.496Z,-2.84
2022-12-03T01:06:18.512Z,-2.76
2022-12-03T01:08:45.459Z,-2.91
2022-12-03T01:11:31.222Z,-2.99
2022-12-03T01:13:58.378Z,-2.99
2022-12-03T01:16:25.402Z,-2.84
2022-12-03T01:18:53.015Z,-2.75
2022-12-03T01:21:20.287Z,-2.71
2022-12-03T01:23:47.410Z,-2.68
2022-12-03T01:26:14.402Z,-2.69
2022-12-03T01:28:44.498Z,-2.69
2022-12-03T01:31:29.871Z,-2.69
2022-12-03T01:33:57.020Z,-2.67
2022-12-03T01:36:23.970Z,-2.68
2022-12-03T01:38:51.019Z,-2.76
2022-12-03T01:41:18.409Z,-2.93
2022-12-03T01:43:46.182Z,-2.94
2022-12-03T01:46:15.950Z,-3.08
2022-12-03T01:48:43.019Z,-3.02
2022-12-03T01:53:37.103Z,-3.27
2022-12-03T01:56:06.438Z,-3.26
2022-12-03T01:58:33.499Z,-3.37
2022-12-03T02:01:02.899Z,-3.32
2022-12-03T02:03:30.115Z,-3.27
2022-12-03T02:05:57.150Z,-3.18
2022-12-03T02:08:35.520Z,-3.15
2022-12-03T02:11:09.300Z,-3.15
2022-12-03T02:13:36.589Z,-3.20
2022-12-03T02:16:04.757Z,-3.14
2022-12-03T02:18:31.921Z,-3.03
2022-12-03T02:21:23.473Z,-3.00
2022-12-03T02:23:56.420Z,-2.93
2022-12-03T02:26:23.705Z,-2.99
2022-12-03T02:28:51.450Z,-3.12
2022-12-03T02:31:18.462Z,-3.13
2022-12-03T02:33:45.742Z,-3.04
2022-12-03T02:36:12.999Z,-3.11
2022-12-03T02:38:41.551Z,-3.10
2022-12-03T02:41:32.468Z,-3.26
2022-12-03T02:43:59.579Z,-3.22
2022-12-03T02:46:26.672Z,-3.28
2022-12-03T02:48:53.821Z,-3.15
2022-12-03T02:51:20.858Z,-3.10
2022-12-03T02:53:51.100Z,-3.06
2022-12-03T02:56:21.588Z,-3.00
2022-12-03T02:58:50.430Z,-3.00
2022-12-03T03:01:18.109Z,-2.94
2022-12-03T03:03:46.063Z,-2.94
2022-12-03T03:06:13.822Z,-2.98
2022-12-03T03:08:41.960Z,-3.06
2022-12-03T03:11:09.018Z,-3.07
2022-12-03T03:13:36.899Z,-3.10
2022-12-03T03:16:05.661Z,-3.14
2022-12-03T03:18:33.902Z,-3.12
2022-12-03T03:21:01.660Z,-3.17
2022-12-03T03:23:28.619Z,-3.18
2022-12-03T03:26:12.541Z,-3.18
2022-12-03T03:28:42.380Z,-3.19
2022-12-03T03:31:11.001Z,-3.22
2022-12-03T03:33:42.105Z,-3.23
2022-12-03T03:36:09.658Z,-3.22
2022-12-03T03:38:37.282Z,-3.22
2022-12-03T03:41:06.423Z,-3.26
2022-12-03T03:43:34.943Z,-3.29
2022-12-03T03:46:04.277Z,-3.37
2022-12-03T03:48:31.961Z,-3.34
2022-12-03T03:50:58.965Z,-3.37
2022-12-03T03:53:26.220Z,-3.34
2022-12-03T03:55:53.379Z,-3.56
2022-12-03T03:58:20.500Z,-3.61
2022-12-03T04:00:47.752Z,-3.72
2022-12-03T04:03:14.747Z,-3.72
2022-12-03T04:05:41.920Z,-3.79
2022-12-03T04:08:08.951Z,-3.67
2022-12-03T04:10:54.362Z,-3.64
2022-12-03T04:13:21.343Z,-3.58
2022-12-03T04:15:48.419Z,-3.55
2022-12-03T04:18:34.059Z,-3.53
2022-12-03T04:21:19.845Z,-3.51
2022-12-03T04:23:46.900Z,-3.51
2022-12-03T04:26:32.243Z,-3.54
2022-12-03T04:28:59.260Z,-3.55
2022-12-03T04:31:44.697Z,-3.51
2022-12-03T04:34:30.252Z,-3.54
2022-12-03T04:36:57.300Z,-3.75
2022-12-03T04:39:24.240Z,-3.64
2022-12-03T04:41:51.159Z,-3.53
2022-12-03T04:44:36.646Z,-3.53
2022-12-03T04:47:09.744Z,-3.61
2022-12-03T04:49:41.871Z,-3.59
2022-12-03T04:52:09.921Z,-3.57
2022-12-03T04:54:37.258Z,-3.56
2022-12-03T04:57:05.130Z,-3.51
2022-12-03T04:59:32.919Z,-3.48
2022-12-03T05:01:59.933Z,-3.46
2022-12-03T05:04:27.180Z,-3.51
2022-12-03T05:06:54.257Z,-3.56
2022-12-03T05:09:21.402Z,-3.50
2022-12-03T05:11:48.398Z,-3.48
2022-12-03T05:14:15.470Z,-3.47
2022-12-03T05:16:42.504Z,-3.46
2022-12-03T05:19:10.238Z,-3.52
2022-12-03T05:21:37.165Z,-3.55
2022-12-03T05:24:04.620Z,-3.55
2022-12-03T05:26:31.569Z,-3.55
2022-12-03T05:28:58.642Z,-3.60
2022-12-03T05:31:25.775Z,-3.56
2022-12-03T05:33:52.997Z,-3.55
2022-12-03T05:36:19.967Z,-3.54
2022-12-03T05:38:47.077Z,-3.57
2022-12-03T05:41:33.498Z,-3.57
2022-12-03T05:44:00.805Z,-3.73
2022-12-03T05:46:27.976Z,-3.77
2022-12-03T05:48:55.350Z,-3.72
2022-12-03T05:51:22.337Z,-3.71
2022-12-03T05:53:49.424Z,-3.69
2022-12-03T05:56:16.329Z,-3.72
2022-12-03T05:58:43.420Z,-3.69
2022-12-03T06:01:10.360Z,-3.71
2022-12-03T06:03:37.558Z,-3.73
2022-12-03T06:06:05.063Z,-3.65
2022-12-03T06:08:32.012Z,-3.57
2022-12-03T06:10:59.078Z,-3.55
2022-12-03T06:13:25.977Z,-3.56
2022-12-03T06:15:53.148Z,-3.51
2022-12-03T06:18:20.266Z,-3.46
2022-12-03T06:20:47.458Z,-3.39
2022-12-03T06:23:14.370Z,-3.35
2022-12-03T06:25:41.723Z,-3.33
2022-12-03T06:28:09.822Z,-3.31
2022-12-03T06:30:36.882Z,-3.34
2022-12-03T06:33:04.164Z,-3.38
2022-12-03T06:35:31.638Z,-3.37
2022-12-03T06:37:58.732Z,-3.33
2022-12-03T06:40:26.820Z,-3.30
2022-12-03T06:42:53.778Z,-3.30
2022-12-03T06:45:20.831Z,-3.33
2022-12-03T06:47:47.864Z,-3.38
2022-12-03T06:50:14.971Z,-3.47
2022-12-03T06:52:42.647Z,-3.60
2022-12-03T06:55:10.500Z,-3.58
2022-12-03T06:57:37.542Z,-3.44
2022-12-03T07:00:06.628Z,-3.36
2022-12-03T07:02:33.658Z,-3.36
2022-12-03T07:05:00.819Z,-3.35
2022-12-03T07:07:27.834Z,-3.37
2022-12-03T07:09:54.942Z,-3.52
2022-12-03T07:12:22.052Z,-3.60
2022-12-03T07:14:49.040Z,-3.66
2022-12-03T07:17:16.047Z,-3.82
2022-12-03T07:19:43.003Z,-3.64
2022-12-03T07:22:09.988Z,-3.56
2022-12-03T07:24:37.062Z,-3.53
2022-12-03T07:27:04.007Z,-3.52
2022-12-03T07:29:31.119Z,-3.47
2022-12-03T07:31:58.060Z,-3.42
2022-12-03T07:34:25.199Z,-3.42
2022-12-03T07:36:52.564Z,-3.51
2022-12-03T07:39:19.658Z,-3.59
2022-12-03T07:41:46.898Z,-3.68
2022-12-03T07:44:15.085Z,-3.69
2022-12-03T07:46:42.777Z,-3.59
2022-12-03T07:49:09.908Z,-3.51
2022-12-03T07:51:37.197Z,-3.51
2022-12-03T07:54:04.747Z,-3.36
2022-12-03T07:56:31.925Z,-3.29
2022-12-03T07:58:58.873Z,-3.26
2022-12-03T08:01:26.048Z,-3.24
2022-12-03T08:03:53.195Z,-3.28
2022-12-03T08:06:20.120Z,-3.43
2022-12-03T08:08:47.229Z,-3.47
2022-12-03T08:11:15.268Z,-3.38
2022-12-03T08:13:42.918Z,-3.39
2022-12-03T08:16:16.703Z,-3.29
2022-12-03T08:18:44.781Z,-3.22
2022-12-03T08:21:18.877Z,-3.15
2022-12-03T08:23:46.337Z,-3.09
2022-12-03T08:26:17.817Z,-3.13
2022-12-03T08:28:44.830Z,-3.19
2022-12-03T08:31:32.839Z,-3.20
2022-12-03T08:34:19.983Z,-3.22
2022-12-03T08:36:48.720Z,-3.24
2022-12-03T08:39:29.259Z,-3.25
2022-12-03T08:42:46.639Z,-3.35
2022-12-03T08:45:28.176Z,-3.25
2022-12-03T08:48:01.326Z,-3.12
2022-12-03T08:50:38.839Z,-3.03
2022-12-03T08:53:29.931Z,-2.99
2022-12-03T08:56:03.912Z,-3.06
2022-12-03T08:58:38.028Z,-3.01
2022-12-03T09:01:11.030Z,-3.00
2022-12-03T09:03:52.825Z,-3.20
2022-12-03T09:06:20.164Z,-3.20
2022-12-03T09:08:47.378Z,-3.29
2022-12-03T09:11:14.774Z,-3.28
2022-12-03T09:13:41.845Z,-3.11
2022-12-03T09:16:09.251Z,-3.07
2022-12-03T09:18:36.406Z,-3.01
2022-12-03T09:21:03.743Z,-2.92
2022-12-03T09:23:30.810Z,-2.85
2022-12-03T09:25:59.371Z,-2.86
2022-12-03T09:28:26.519Z,-2.84
2022-12-03T09:30:53.459Z,-2.93
2022-12-03T09:33:20.699Z,-2.97
2022-12-03T09:35:47.711Z,-3.06
2022-12-03T09:38:14.757Z,-3.12
2022-12-03T09:40:42.261Z,-3.37
2022-12-03T09:43:09.548Z,-3.27
2022-12-03T09:45:36.573Z,-3.12
2022-12-03T09:48:05.342Z,-3.02
2022-12-03T09:50:32.904Z,-2.97
2022-12-03T09:53:03.203Z,-2.88
2022-12-03T09:55:31.238Z,-2.77
2022-12-03T09:57:58.340Z,-2.81
2022-12-03T10:00:28.297Z,-2.95
2022-12-03T10:02:58.372Z,-3.10
2022-12-03T10:05:25.429Z,-2.98
2022-12-03T10:07:53.279Z,-2.97
2022-12-03T10:10:22.967Z,-2.89
2022-12-03T10:12:51.344Z,-2.79
2022-12-03T10:15:20.463Z,-2.72
2022-12-03T10:17:48.588Z,-2.67
2022-12-03T10:20:20.275Z,-2.71
2022-12-03T10:23:02.424Z,-2.75
2022-12-03T10:25:29.437Z,-2.80
2022-12-03T10:27:59.466Z,-3.03
2022-12-03T10:30:28.833Z,-2.99
2022-12-03T10:32:58.260Z,-2.88
2022-12-03T10:35:39.581Z,-2.78
2022-12-03T10:38:08.353Z,-2.89
2022-12-03T10:40:39.473Z,-3.11
2022-12-03T10:43:18.295Z,-2.95
2022-12-03T10:46:12.444Z,-2.86
2022-12-03T10:48:39.683Z,-2.70
2022-12-03T10:51:13.829Z,-2.57
2022-12-03T10:53:41.722Z,-2.51
2022-12-03T10:56:18.402Z,-2.43
2022-12-03T10:58:45.395Z,-2.39
2022-12-03T11:01:18.085Z,-2.46
2022-12-03T11:03:45.834Z,-2.53
2022-12-03T11:06:18.481Z,-2.52
2022-12-03T11:08:54.707Z,-2.48
2022-12-03T11:11:28.389Z,-2.43
2022-12-03T11:14:00.133Z,-2.42
2022-12-03T11:16:48.138Z,-2.64
2022-12-03T11:19:21.990Z,-2.68
2022-12-03T11:22:10.046Z,-2.51
2022-12-03T11:24:38.981Z,-2.54
2022-12-03T11:27:10.698Z,-2.48
2022-12-03T11:29:44.974Z,-2.49
2022-12-03T11:32:12.199Z,-2.47
2022-12-03T11:34:41.078Z,-2.51
2022-12-03T11:37:10.954Z,-2.53
2022-12-03T11:39:50.576Z,-2.46
2022-12-03T11:42:26.512Z,-2.36
2022-12-03T11:45:30.875Z,-2.39
2022-12-03T11:48:24.053Z,-2.30
2022-12-03T11:50:53.463Z,-2.25
2022-12-03T11:53:26.531Z,-2.49
2022-12-03T11:56:09.333Z,-2.52
2022-12-03T11:58:38.930Z,-2.50
2022-12-03T12:01:07.753Z,-2.48
2022-12-03T12:03:37.399Z,-2.52
2022-12-03T12:06:09.316Z,-2.58
2022-12-03T12:08:41.598Z,-2.54
2022-12-03T12:11:41.826Z,-2.65
2022-12-03T12:14:10.757Z,-2.67
2022-12-03T12:16:50.676Z,-2.58
2022-12-03T12:19:38.475Z,-2.43
2022-12-03T12:22:27.391Z,-2.38
2022-12-03T12:24:56.548Z,-2.41
2022-12-03T12:27:33.010Z,-2.54
2022-12-03T12:30:02.496Z,-2.43
2022-12-03T12:32:31.881Z,-2.43
2022-12-03T12:35:24.694Z,-2.41
2022-12-03T12:38:11.861Z,-2.48
2022-12-03T12:40:45.430Z,-2.42
2022-12-03T12:43:16.463Z,-2.33
2022-12-03T12:45:46.353Z,-2.33
2022-12-03T12:48:13.282Z,-2.59
2022-12-03T12:50:45.805Z,-2.53
2022-12-03T12:53:20.085Z,-2.46
2022-12-03T12:55:49.052Z,-2.57
2022-12-03T12:58:18.981Z,-2.74
2022-12-03T13:01:07.997Z,-2.79
2022-12-03T13:03:39.210Z,-2.58
2022-12-03T13:06:07.116Z,-2.52
2022-12-03T13:08:39.091Z,-2.55
2022-12-03T13:11:06.950Z,-2.45
2022-12-03T13:13:36.302Z,-2.41
2022-12-03T13:16:27.721Z,-2.43
2022-12-03T13:18:56.167Z,-2.47
2022-12-03T13:21:28.118Z,-2.54
2022-12-03T13:23:56.944Z,-2.59
2022-12-03T13:26:38.267Z,-2.61
2022-12-03T13:29:19.303Z,-2.82
2022-12-03T13:32:05.462Z,-2.70
2022-12-03T13:34:33.938Z,-2.91
2022-12-03T13:37:01.703Z,-2.81
2022-12-03T13:39:35.475Z,-2.77
2022-12-03T13:42:26.960Z,-2.77
2022-12-03T13:44:54.354Z,-2.74
2022-12-03T13:47:23.172Z,-2.78
2022-12-03T13:49:55.448Z,-2.68
2022-12-03T13:52:25.474Z,-2.70
2022-12-03T13:54:55.098Z,-2.75
2022-12-03T13:57:22.746Z,-2.82
2022-12-03T13:59:50.084Z,-2.94
2022-12-03T14:02:17.338Z,-2.83
2022-12-03T14:04:44.433Z,-2.73
2022-12-03T14:07:11.395Z,-2.73
2022-12-03T14:09:38.494Z,-2.72
2022-12-03T14:12:24.433Z,-2.60
2022-12-03T14:14:51.661Z,-2.42
2022-12-03T14:17:18.657Z,-2.30
2022-12-03T14:19:45.717Z,-2.23
2022-12-03T14:22:12.778Z,-2.21
2022-12-03T14:24:40.178Z,-2.35
2022-12-03T14:27:07.313Z,-2.47
2022-12-03T14:29:34.863Z,-2.51
2022-12-03T14:32:02.299Z,-2.54
2022-12-03T14:34:29.589Z,-2.60
2022-12-03T14:36:56.837Z,-2.59
2022-12-03T14:39:23.832Z,-2.56
2022-12-03T14:42:09.608Z,-2.52
2022-12-03T14:44:36.677Z,-2.47
2022-12-03T14:47:03.735Z,-2.42
2022-12-03T14:49:31.037Z,-2.34
2022-12-03T14:51:59.753Z,-2.30
2022-12-03T14:54:26.821Z,-2.28
2022-12-03T14:56:53.853Z,-2.26
2022-12-03T14:59:26.002Z,-2.23
2022-12-03T15:01:55.030Z,-2.23
2022-12-03T15:04:22.536Z,-2.23
2022-12-03T15:06:49.573Z,-2.27
2022-12-03T15:09:16.880Z,-2.28
2022-12-03T15:11:46.358Z,-2.27
2022-12-03T15:14:14.208Z,-2.26
2022-12-03T15:16:41.336Z,-2.26
2022-12-03T15:19:08.671Z,-2.26
2022-12-03T15:21:35.979Z,-2.27
2022-12-03T15:24:04.281Z,-2.29
2022-12-03T15:26:31.425Z,-2.31
2022-12-03T15:28:59.161Z,-2.32
2022-12-03T15:31:27.353Z,-2.33
2022-12-03T15:33:55.233Z,-2.37
2022-12-03T15:36:22.638Z,-2.39
2022-12-03T15:38:50.623Z,-2.40
2022-12-03T15:41:37.054Z,-2.38
2022-12-03T15:44:09.582Z,-2.38
2022-12-03T15:46:37.417Z,-2.41
2022-12-03T15:49:05.501Z,-2.40
2022-12-03T15:51:34.258Z,-2.35
2022-12-03T15:54:01.739Z,-2.33
2022-12-03T15:56:31.287Z,-2.32
2022-12-03T15:59:02.634Z,-2.33
2022-12-03T16:01:31.625Z,-2.32
2022-12-03T16:04:03.641Z,-2.30
2022-12-03T16:06:33.992Z,-2.31
2022-12-03T16:09:04.605Z,-2.29
2022-12-03T16:11:36.465Z,-2.26
2022-12-03T16:14:04.351Z,-2.25
2022-12-03T16:16:31.563Z,-2.22
2022-12-03T16:18:58.891Z,-2.19
2022-12-03T16:21:27.309Z,-2.19
2022-12-03T16:23:55.323Z,-2.18
2022-12-03T16:26:23.291Z,-2.17
2022-12-03T16:28:51.457Z,-2.19
2022-12-03T16:31:21.931Z,-2.20
2022-12-03T16:33:49.921Z,-2.18
2022-12-03T16:36:18.039Z,-2.14
2022-12-03T16:38:45.225Z,-2.12
2022-12-03T16:41:12.504Z,-2.10
2022-12-03T16:43:39.700Z,-2.11
2022-12-03T16:46:21.288Z,-1.98
2022-12-03T16:48:48.892Z,-1.75
2022-12-03T16:51:16.612Z,-1.57
2022-12-03T16:53:43.721Z,-1.46
2022-12-03T16:56:11.096Z,-1.54
2022-12-03T16:58:38.189Z,-1.65
2022-12-03T17:01:05.562Z,-1.93
2022-12-03T17:03:34.221Z,-1.96
2022-12-03T17:06:02.198Z,-1.97
2022-12-03T17:08:29.575Z,-1.96
2022-12-03T17:10:56.826Z,-2.07
2022-12-03T17:13:24.092Z,-2.09
2022-12-03T17:15:51.734Z,-2.21
2022-12-03T17:18:19.074Z,-2.23
2022-12-03T17:20:46.238Z,-2.34
2022-12-03T17:23:13.829Z,-2.28
2022-12-03T17:25:40.850Z,-2.25
2022-12-03T17:28:07.833Z,-2.21
2022-12-03T17:30:35.381Z,-2.16
2022-12-03T17:33:02.534Z,-2.17
2022-12-03T17:35:29.750Z,-2.13
2022-12-03T17:37:57.491Z,-2.11
2022-12-03T17:40:26.001Z,-2.10
2022-12-03T17:42:53.630Z,-2.08
2022-12-03T17:45:20.764Z,-2.08
2022-12-03T17:47:47.889Z,-2.10
2022-12-03T17:50:15.045Z,-2.15
2022-12-03T17:52:42.120Z,-2.15
2022-12-03T17:55:12.196Z,-2.19
2022-12-03T17:57:41.447Z,-2.21
2022-12-03T18:00:10.062Z,-2.22
2022-12-03T18:02:41.005Z,-2.17
2022-12-03T18:05:08.721Z,-2.15
2022-12-03T18:07:35.761Z,-2.12
2022-12-03T18:10:03.079Z,-2.12
2022-12-03T18:12:30.074Z,-2.15
2022-12-03T18:14:57.137Z,-2.20
2022-12-03T18:17:24.323Z,-2.23
2022-12-03T18:19:51.696Z,-2.24
2022-12-03T18:22:19.005Z,-2.26
2022-12-03T18:24:48.879Z,-2.28
2022-12-03T18:27:18.519Z,-2.27
2022-12-03T18:29:46.134Z,-2.25
2022-12-03T18:32:27.798Z,-2.22
2022-12-03T18:34:55.872Z,-2.16
2022-12-03T18:37:23.742Z,-2.14
2022-12-03T18:39:50.914Z,-2.10
2022-12-03T18:42:20.596Z,-2.10
2022-12-03T18:44:50.051Z,-2.07
2022-12-03T18:47:22.374Z,-2.05
2022-12-03T18:49:50.314Z,-2.05
2022-12-03T18:52:21.220Z,-2.07
2022-12-03T18:54:48.816Z,-2.11
2022-12-03T18:57:16.045Z,-2.13
2022-12-03T18:59:43.084Z,-2.13
2022-12-03T19:02:53.857Z,-2.18
2022-12-03T19:05:07.098Z,-2.15
2022-12-03T19:07:34.072Z,-2.15
2022-12-03T19:10:01.276Z,-2.16
2022-12-03T19:12:28.261Z,-2.20
2022-12-03T19:14:55.233Z,-2.19
2022-12-03T19:17:22.387Z,-2.14
2022-12-03T19:19:49.538Z,-2.15
2022-12-03T19:22:16.696Z,-2.16
2022-12-03T19:24:44.081Z,-2.15
2022-12-03T19:27:11.282Z,-2.11
2022-12-03T19:29:38.343Z,-2.09
2022-12-03T19:32:05.789Z,-2.08
2022-12-03T19:34:32.813Z,-2.05
2022-12-03T19:36:59.860Z,-2.06
2022-12-03T19:39:27.024Z,-2.05
2022-12-03T19:41:54.133Z,-2.07
2022-12-03T19:44:21.099Z,-2.08
2022-12-03T19:46:49.971Z,-2.08
2022-12-03T19:49:18.766Z,-2.04
2022-12-03T19:51:46.049Z,-2.04
2022-12-03T19:54:13.575Z,-2.03
2022-12-03T19:56:40.701Z,-2.03
2022-12-03T19:59:08.197Z,-2.02
2022-12-03T20:01:36.637Z,-2.02
2022-12-03T20:04:04.490Z,-2.04
2022-12-03T20:06:34.166Z,-2.05
2022-12-03T20:09:07.484Z,-2.05
2022-12-03T20:11:35.404Z,-2.03
2022-12-03T20:14:06.072Z,-2.01
2022-12-03T20:16:33.586Z,-2.00
2022-12-03T20:19:04.150Z,-2.00
2022-12-03T20:21:33.573Z,-1.97
2022-12-03T20:24:01.330Z,-1.95
2022-12-03T20:26:29.759Z,-1.93
2022-12-03T20:28:58.294Z,-1.91
2022-12-03T20:31:32.235Z,-1.87
2022-12-03T20:34:03.491Z,-1.89
2022-12-03T20:36:32.471Z,-1.91
2022-12-03T20:39:03.558Z,-1.96
2022-12-03T20:41:31.760Z,-1.96
2022-12-03T20:43:59.396Z,-1.94
2022-12-03T20:46:32.482Z,-1.95
2022-12-03T20:49:00.898Z,-1.98
2022-12-03T20:51:30.299Z,-1.97
2022-12-03T20:54:01.372Z,-1.97
2022-12-03T20:56:33.788Z,-1.94
2022-12-03T20:59:08.060Z,-1.90
2022-12-03T21:01:36.572Z,-1.87
2022-12-03T21:04:05.830Z,-1.88
2022-12-03T21:06:39.774Z,-1.88
2022-12-03T21:09:09.683Z,-1.86
2022-12-03T21:11:39.208Z,-1.87
2022-12-03T21:14:06.859Z,-1.86
2022-12-03T21:17:07.957Z,-1.85
2022-12-03T21:19:24.573Z,-1.81
2022-12-03T21:21:51.792Z,-1.80
2022-12-03T21:24:18.759Z,-1.79
2022-12-03T21:26:45.725Z,-1.82
2022-12-03T21:29:13.251Z,-1.82
2022-12-03T21:31:40.289Z,-1.79
2022-12-03T21:34:08.858Z,-1.79
2022-12-03T21:36:36.068Z,-1.80
2022-12-03T21:39:04.130Z,-1.79
2022-12-03T21:41:32.250Z,-1.79
2022-12-03T21:43:59.524Z,-1.79
2022-12-03T21:47:09.617Z,-1.77
2022-12-03T21:49:14.822Z,-1.76
2022-12-03T21:51:41.935Z,-1.77
2022-12-03T21:54:09.012Z,-1.78
2022-12-03T21:56:36.087Z,-1.81
2022-12-03T21:59:03.197Z,-1.82
2022-12-03T22:01:30.438Z,-1.81
2022-12-03T22:03:57.476Z,-1.82
2022-12-03T22:06:24.608Z,-1.83
2022-12-03T22:08:51.666Z,-1.84
2022-12-03T22:11:21.373Z,-1.84
2022-12-03T22:13:49.110Z,-1.80
2022-12-03T22:16:18.810Z,-1.82
2022-12-03T22:18:46.060Z,-1.83
2022-12-03T22:21:15.665Z,-1.87
2022-12-03T22:23:42.951Z,-1.87
2022-12-03T22:26:13.387Z,-1.89
2022-12-03T22:28:43.764Z,-1.86
2022-12-03T22:31:11.437Z,-1.82
2022-12-03T22:33:39.277Z,-1.82
2022-12-03T22:36:21.106Z,-1.83
2022-12-03T22:38:50.128Z,-1.82
2022-12-03T22:41:18.175Z,-1.80
2022-12-03T22:43:45.985Z,-1.78
2022-12-03T22:46:14.266Z,-1.77
2022-12-03T22:48:43.587Z,-1.75
2022-12-03T22:51:19.677Z,-1.71
2022-12-03T22:53:47.650Z,-1.65
2022-12-03T22:56:14.982Z,-1.67
2022-12-03T22:58:42.277Z,-1.68
2022-12-03T23:01:09.711Z,-1.71
2022-12-03T23:03:37.407Z,-1.71
2022-12-03T23:06:11.785Z,-1.72
2022-12-03T23:08:38.808Z,-1.73
2022-12-03T23:11:06.076Z,-1.71
2022-12-03T23:13:33.172Z,-1.72
2022-12-03T23:16:00.372Z,-1.69
2022-12-03T23:18:27.656Z,-1.68
2022-12-03T23:20:56.008Z,-1.66
2022-12-03T23:23:25.091Z,-1.66
2022-12-03T23:26:03.031Z,-1.66
2022-12-03T23:28:31.802Z,-1.65
2022-12-03T23:30:59.539Z,-1.65
2022-12-03T23:33:26.940Z,-1.65
2022-12-03T23:35:54.011Z,-1.62
2022-12-03T23:38:21.049Z,-1.62
2022-12-03T23:40:48.603Z,-1.62
2022-12-03T23:43:16.246Z,-1.59
2022-12-03T23:45:43.404Z,-1.55
2022-12-03T23:48:10.558Z,-1.53
2022-12-03T23:50:41.480Z,-1.49
2022-12-03T23:53:09.241Z,-1.46
2022-12-03T23:55:39.981Z,-1.45
2022-12-03T23:58:07.102Z,-1.43
